createdAt,value
2017-07-14T00:00:04.419Z,1015.33
2017-07-14T00:00:45.310Z,1015.29
2017-07-14T00:01:26.224Z,1015.36
2017-07-14T00:02:07.076Z,1015.36
2017-07-14T00:02:47.982Z,1015.32
2017-07-14T00:03:28.881Z,1015.32
2017-07-14T00:04:09.747Z,1015.28
2017-07-14T00:04:50.621Z,1015.3
2017-07-14T00:05:31.511Z,1015.32
2017-07-14T00:06:12.397Z,1015.31
2017-07-14T00:06:53.284Z,1015.29
2017-07-14T00:07:34.160Z,1015.3
2017-07-14T00:08:15.046Z,1015.27
2017-07-14T00:08:55.937Z,1015.28
2017-07-14T00:09:36.822Z,1015.27
2017-07-14T00:10:17.710Z,1015.27
2017-07-14T00:10:58.616Z,1015.28
2017-07-14T00:11:39.513Z,1015.27
2017-07-14T00:12:20.404Z,1015.26
2017-07-14T00:13:01.307Z,1015.22
2017-07-14T00:13:42.186Z,1015.24
2017-07-14T00:14:23.069Z,1015.23
2017-07-14T00:15:03.986Z,1015.24
2017-07-14T00:15:44.866Z,1015.21
2017-07-14T00:16:25.776Z,1015.27
2017-07-14T00:17:06.653Z,1015.22
2017-07-14T00:17:47.543Z,1015.23
2017-07-14T00:18:28.454Z,1015.21
2017-07-14T00:19:09.349Z,1015.21
2017-07-14T00:19:50.247Z,1015.19
2017-07-14T00:20:31.158Z,1015.22
2017-07-14T00:21:12.066Z,1015.18
2017-07-14T00:21:52.961Z,1015.22
2017-07-14T00:22:33.841Z,1015.19
2017-07-14T00:23:14.741Z,1015.2
2017-07-14T00:23:55.628Z,1015.2
2017-07-14T00:24:36.512Z,1015.19
2017-07-14T00:25:17.420Z,1015.14
2017-07-14T00:25:58.327Z,1015.16
2017-07-14T00:26:39.216Z,1015.19
2017-07-14T00:27:20.114Z,1015.2
2017-07-14T00:28:00.997Z,1015.16
2017-07-14T00:28:41.877Z,1015.18
2017-07-14T00:29:22.771Z,1015.16
2017-07-14T00:30:03.653Z,1015.21
2017-07-14T00:30:44.538Z,1015.2
2017-07-14T00:31:25.427Z,1015.19
2017-07-14T00:32:06.320Z,1015.18
2017-07-14T00:32:47.203Z,1015.2
2017-07-14T00:33:28.095Z,1015.16
2017-07-14T00:34:08.997Z,1015.19
2017-07-14T00:34:49.885Z,1015.18
2017-07-14T00:35:30.767Z,1015.17
2017-07-14T00:36:11.691Z,1015.15
2017-07-14T00:36:52.555Z,1015.13
2017-07-14T00:37:33.442Z,1015.16
2017-07-14T00:38:14.324Z,1015.15
2017-07-14T00:38:55.222Z,1015.16
2017-07-14T00:39:36.113Z,1015.12
2017-07-14T00:40:17.050Z,1015.14
2017-07-14T00:40:57.924Z,1015.13
2017-07-14T00:41:38.798Z,1015.12
2017-07-14T00:42:19.696Z,1015.13
2017-07-14T00:43:00.585Z,1015.09
2017-07-14T00:43:41.472Z,1015.12
2017-07-14T00:44:22.377Z,1015.1
2017-07-14T00:45:03.258Z,1015.11
2017-07-14T00:45:44.127Z,1015.08
2017-07-14T00:46:25.017Z,1015.08
2017-07-14T00:47:05.915Z,1015.07
2017-07-14T00:47:46.806Z,1015.08
2017-07-14T00:48:27.694Z,1015.07
2017-07-14T00:49:08.599Z,1015.05
2017-07-14T00:49:49.488Z,1015.1
2017-07-14T00:50:30.371Z,1015.06
2017-07-14T00:51:11.255Z,1015.02
2017-07-14T00:51:52.148Z,1015.02
2017-07-14T00:52:33.046Z,1015.02
2017-07-14T00:53:13.945Z,1015.02
2017-07-14T00:53:54.829Z,1015.02
2017-07-14T00:54:35.702Z,1015.02
2017-07-14T00:55:16.621Z,1015.01
2017-07-14T00:55:57.503Z,1015.02
2017-07-14T00:56:38.391Z,1015.03
2017-07-14T00:57:19.287Z,1015.04
2017-07-14T00:58:00.169Z,1015.02
2017-07-14T00:58:41.085Z,1015.01
2017-07-14T00:59:21.976Z,1015.02
2017-07-14T01:00:02.862Z,1014.99
2017-07-14T01:00:43.785Z,1015.02
2017-07-14T01:01:24.671Z,1014.99
2017-07-14T01:02:05.570Z,1014.98
2017-07-14T01:02:46.466Z,1014.97
2017-07-14T01:03:27.367Z,1015.01
2017-07-14T01:04:08.255Z,1014.99
2017-07-14T01:04:49.165Z,1014.97
2017-07-14T01:05:30.050Z,1014.95
2017-07-14T01:06:10.956Z,1014.95
2017-07-14T01:06:51.843Z,1014.98
2017-07-14T01:07:32.732Z,1014.95
2017-07-14T01:08:13.622Z,1014.99
2017-07-14T01:08:54.541Z,1014.94
2017-07-14T01:09:35.401Z,1014.96
2017-07-14T01:10:16.319Z,1014.89
2017-07-14T01:10:57.202Z,1014.93
2017-07-14T01:11:38.112Z,1014.91
2017-07-14T01:12:19.009Z,1014.89
2017-07-14T01:12:59.885Z,1014.92
2017-07-14T01:13:40.776Z,1014.88
2017-07-14T01:14:21.667Z,1014.84
2017-07-14T01:15:02.605Z,1014.85
2017-07-14T01:15:43.502Z,1014.84
2017-07-14T01:16:24.385Z,1014.86
2017-07-14T01:17:05.274Z,1014.85
2017-07-14T01:17:46.151Z,1014.85
2017-07-14T01:19:24.578Z,1014.87
2017-07-14T01:20:05.464Z,1014.85
2017-07-14T01:20:46.337Z,1014.85
2017-07-14T01:21:27.223Z,1014.85
2017-07-14T01:22:08.113Z,1014.88
2017-07-14T01:22:48.989Z,1014.89
2017-07-14T01:23:29.882Z,1014.89
2017-07-14T01:24:10.789Z,1014.9
2017-07-14T01:24:51.669Z,1014.88
2017-07-14T01:25:32.560Z,1014.88
2017-07-14T01:26:13.452Z,1014.87
2017-07-14T01:26:54.340Z,1014.84
2017-07-14T01:27:35.236Z,1014.84
2017-07-14T01:28:16.128Z,1014.87
2017-07-14T01:28:57.091Z,1014.79
2017-07-14T01:29:37.972Z,1014.82
2017-07-14T01:30:18.865Z,1014.8
2017-07-14T01:30:59.751Z,1014.81
2017-07-14T01:31:40.636Z,1014.81
2017-07-14T01:32:21.512Z,1014.79
2017-07-14T01:33:02.387Z,1014.79
2017-07-14T01:33:43.298Z,1014.8
2017-07-14T01:34:24.206Z,1014.77
2017-07-14T01:35:05.098Z,1014.81
2017-07-14T01:35:45.999Z,1014.82
2017-07-14T01:36:26.881Z,1014.82
2017-07-14T01:37:07.773Z,1014.82
2017-07-14T01:37:48.662Z,1014.81
2017-07-14T01:38:29.531Z,1014.81
2017-07-14T01:39:10.435Z,1014.82
2017-07-14T01:39:51.321Z,1014.8
2017-07-14T01:40:32.201Z,1014.83
2017-07-14T01:41:13.109Z,1014.82
2017-07-14T01:41:53.993Z,1014.82
2017-07-14T01:42:34.876Z,1014.78
2017-07-14T01:43:15.769Z,1014.8
2017-07-14T01:43:56.666Z,1014.78
2017-07-14T01:44:37.555Z,1014.79
2017-07-14T01:45:18.441Z,1014.8
2017-07-14T01:45:59.336Z,1014.79
2017-07-14T01:46:40.224Z,1014.79
2017-07-14T01:47:21.103Z,1014.77
2017-07-14T01:48:02.006Z,1014.79
2017-07-14T01:48:42.894Z,1014.81
2017-07-14T01:49:23.768Z,1014.81
2017-07-14T01:50:04.645Z,1014.8
2017-07-14T01:50:45.549Z,1014.8
2017-07-14T01:51:26.429Z,1014.77
2017-07-14T01:52:07.317Z,1014.78
2017-07-14T01:52:48.201Z,1014.8
2017-07-14T01:53:29.095Z,1014.79
2017-07-14T01:54:09.971Z,1014.75
2017-07-14T01:54:50.859Z,1014.78
2017-07-14T01:55:31.757Z,1014.75
2017-07-14T01:56:12.649Z,1014.78
2017-07-14T01:56:53.507Z,1014.75
2017-07-14T01:57:34.397Z,1014.75
2017-07-14T01:58:15.297Z,1014.76
2017-07-14T01:58:56.178Z,1014.74
2017-07-14T01:59:37.072Z,1014.74
2017-07-14T02:00:17.964Z,1014.72
2017-07-14T02:00:58.847Z,1014.72
2017-07-14T02:01:39.736Z,1014.72
2017-07-14T02:02:20.638Z,1014.72
2017-07-14T02:03:01.524Z,1014.67
2017-07-14T02:03:42.403Z,1014.68
2017-07-14T02:04:23.274Z,1014.69
2017-07-14T02:05:04.172Z,1014.68
2017-07-14T02:05:45.075Z,1014.69
2017-07-14T02:06:25.947Z,1014.67
2017-07-14T02:07:06.839Z,1014.67
2017-07-14T02:07:47.733Z,1014.68
2017-07-14T02:08:28.606Z,1014.64
2017-07-14T02:09:09.496Z,1014.62
2017-07-14T02:09:50.386Z,1014.65
2017-07-14T02:10:31.273Z,1014.63
2017-07-14T02:11:12.160Z,1014.58
2017-07-14T02:11:53.065Z,1014.6
2017-07-14T02:12:33.956Z,1014.62
2017-07-14T02:13:14.847Z,1014.61
2017-07-14T02:13:55.733Z,1014.61
2017-07-14T02:14:36.616Z,1014.6
2017-07-14T02:15:17.503Z,1014.61
2017-07-14T02:15:58.417Z,1014.58
2017-07-14T02:16:39.302Z,1014.57
2017-07-14T02:17:20.186Z,1014.59
2017-07-14T02:18:01.088Z,1014.57
2017-07-14T02:18:41.983Z,1014.58
2017-07-14T02:19:22.859Z,1014.59
2017-07-14T02:20:03.755Z,1014.56
2017-07-14T02:20:44.642Z,1014.56
2017-07-14T02:21:25.519Z,1014.58
2017-07-14T02:22:06.400Z,1014.58
2017-07-14T02:22:47.300Z,1014.56
2017-07-14T02:23:28.254Z,1014.6
2017-07-14T02:24:09.139Z,1014.57
2017-07-14T02:24:50.019Z,1014.6
2017-07-14T02:25:30.926Z,1014.58
2017-07-14T02:26:11.812Z,1014.59
2017-07-14T02:26:52.677Z,1014.56
2017-07-14T02:27:33.615Z,1014.55
2017-07-14T02:28:14.507Z,1014.56
2017-07-14T02:28:55.404Z,1014.52
2017-07-14T02:29:36.288Z,1014.52
2017-07-14T02:30:17.195Z,1014.52
2017-07-14T02:30:58.087Z,1014.54
2017-07-14T02:31:39.027Z,1014.54
2017-07-14T02:32:19.924Z,1014.54
2017-07-14T02:33:00.803Z,1014.53
2017-07-14T02:33:41.732Z,1014.52
2017-07-14T02:34:22.622Z,1014.53
2017-07-14T02:35:03.495Z,1014.51
2017-07-14T02:35:44.389Z,1014.53
2017-07-14T02:36:25.285Z,1014.54
2017-07-14T02:37:06.171Z,1014.54
2017-07-14T02:37:47.066Z,1014.53
2017-07-14T02:38:27.953Z,1014.56
2017-07-14T02:39:08.834Z,1014.54
2017-07-14T02:39:49.723Z,1014.56
2017-07-14T02:40:30.613Z,1014.53
2017-07-14T02:41:11.495Z,1014.51
2017-07-14T02:41:52.379Z,1014.52
2017-07-14T02:42:33.269Z,1014.5
2017-07-14T02:43:14.161Z,1014.53
2017-07-14T02:43:55.046Z,1014.51
2017-07-14T02:44:35.938Z,1014.53
2017-07-14T02:45:16.832Z,1014.49
2017-07-14T02:45:57.716Z,1014.54
2017-07-14T02:46:38.592Z,1014.52
2017-07-14T02:47:19.470Z,1014.5
2017-07-14T02:48:00.345Z,1014.54
2017-07-14T02:48:41.225Z,1014.52
2017-07-14T02:49:22.107Z,1014.49
2017-07-14T02:50:02.991Z,1014.47
2017-07-14T02:50:43.880Z,1014.47
2017-07-14T02:51:24.761Z,1014.48
2017-07-14T02:52:05.640Z,1014.5
2017-07-14T02:52:46.531Z,1014.48
2017-07-14T02:53:27.418Z,1014.55
2017-07-14T02:54:08.300Z,1014.52
2017-07-14T02:54:49.218Z,1014.52
2017-07-14T02:55:30.083Z,1014.51
2017-07-14T02:56:10.970Z,1014.53
2017-07-14T02:56:51.851Z,1014.55
2017-07-14T02:57:32.741Z,1014.55
2017-07-14T02:58:13.649Z,1014.52
2017-07-14T02:58:54.528Z,1014.53
2017-07-14T02:59:35.425Z,1014.52
2017-07-14T03:00:16.348Z,1014.5
2017-07-14T03:00:57.239Z,1014.54
2017-07-14T03:01:38.133Z,1014.49
2017-07-14T03:02:19.052Z,1014.47
2017-07-14T03:02:59.946Z,1014.5
2017-07-14T03:03:40.835Z,1014.47
2017-07-14T03:04:21.720Z,1014.44
2017-07-14T03:05:02.618Z,1014.44
2017-07-14T03:05:43.499Z,1014.45
2017-07-14T03:06:24.387Z,1014.44
2017-07-14T03:07:05.296Z,1014.41
2017-07-14T03:07:46.185Z,1014.41
2017-07-14T03:08:27.081Z,1014.39
2017-07-14T03:09:07.976Z,1014.39
2017-07-14T03:09:48.883Z,1014.41
2017-07-14T03:10:29.750Z,1014.38
2017-07-14T03:11:10.654Z,1014.38
2017-07-14T03:11:51.534Z,1014.38
2017-07-14T03:12:32.420Z,1014.34
2017-07-14T03:13:13.320Z,1014.38
2017-07-14T03:13:54.200Z,1014.34
2017-07-14T03:14:35.083Z,1014.33
2017-07-14T03:15:15.969Z,1014.34
2017-07-14T03:15:56.863Z,1014.34
2017-07-14T03:16:37.755Z,1014.3
2017-07-14T03:17:18.631Z,1014.36
2017-07-14T03:17:59.522Z,1014.35
2017-07-14T03:18:40.407Z,1014.38
2017-07-14T03:19:21.322Z,1014.35
2017-07-14T03:20:02.212Z,1014.36
2017-07-14T03:20:43.104Z,1014.35
2017-07-14T03:21:23.999Z,1014.29
2017-07-14T03:22:04.890Z,1014.35
2017-07-14T03:22:45.773Z,1014.35
2017-07-14T03:23:26.684Z,1014.35
2017-07-14T03:24:07.558Z,1014.35
2017-07-14T03:24:48.478Z,1014.36
2017-07-14T03:25:29.350Z,1014.36
2017-07-14T03:26:10.246Z,1014.38
2017-07-14T03:26:51.142Z,1014.38
2017-07-14T03:27:32.033Z,1014.38
2017-07-14T03:28:12.922Z,1014.39
2017-07-14T03:28:53.811Z,1014.39
2017-07-14T03:29:34.699Z,1014.35
2017-07-14T03:30:15.588Z,1014.37
2017-07-14T03:30:56.473Z,1014.37
2017-07-14T03:31:37.355Z,1014.37
2017-07-14T03:32:18.242Z,1014.37
2017-07-14T03:32:59.123Z,1014.37
2017-07-14T03:33:40.005Z,1014.36
2017-07-14T03:34:20.878Z,1014.32
2017-07-14T03:35:01.759Z,1014.34
2017-07-14T03:35:42.659Z,1014.33
2017-07-14T03:36:23.548Z,1014.33
2017-07-14T03:37:04.503Z,1014.37
2017-07-14T03:37:45.366Z,1014.34
2017-07-14T03:38:26.266Z,1014.36
2017-07-14T03:39:07.158Z,1014.35
2017-07-14T03:39:48.039Z,1014.37
2017-07-14T03:40:28.914Z,1014.37
2017-07-14T03:41:09.797Z,1014.35
2017-07-14T03:41:50.699Z,1014.37
2017-07-14T03:42:31.570Z,1014.35
2017-07-14T03:43:12.460Z,1014.32
2017-07-14T03:43:53.355Z,1014.34
2017-07-14T03:44:34.248Z,1014.31
2017-07-14T03:45:15.118Z,1014.32
2017-07-14T03:45:56.010Z,1014.26
2017-07-14T03:46:36.891Z,1014.32
2017-07-14T03:47:17.767Z,1014.32
2017-07-14T03:47:58.688Z,1014.35
2017-07-14T03:48:39.602Z,1014.38
2017-07-14T03:49:20.479Z,1014.39
2017-07-14T03:50:01.384Z,1014.38
2017-07-14T03:50:42.275Z,1014.33
2017-07-14T03:51:23.139Z,1014.34
2017-07-14T03:52:04.024Z,1014.32
2017-07-14T03:52:44.925Z,1014.35
2017-07-14T03:53:25.821Z,1014.35
2017-07-14T03:54:06.720Z,1014.35
2017-07-14T03:54:47.602Z,1014.38
2017-07-14T03:55:28.489Z,1014.37
2017-07-14T03:56:09.384Z,1014.4
2017-07-14T03:56:50.261Z,1014.37
2017-07-14T03:57:31.150Z,1014.38
2017-07-14T03:58:12.050Z,1014.39
2017-07-14T03:58:52.959Z,1014.39
2017-07-14T03:59:33.837Z,1014.4
2017-07-14T04:00:14.729Z,1014.42
2017-07-14T04:00:55.614Z,1014.4
2017-07-14T04:01:36.515Z,1014.41
2017-07-14T04:02:17.403Z,1014.38
2017-07-14T04:02:58.298Z,1014.41
2017-07-14T04:03:39.200Z,1014.4
2017-07-14T04:04:20.049Z,1014.42
2017-07-14T04:05:00.938Z,1014.44
2017-07-14T04:05:41.834Z,1014.43
2017-07-14T04:06:22.726Z,1014.43
2017-07-14T04:07:03.616Z,1014.44
2017-07-14T04:07:44.507Z,1014.43
2017-07-14T04:08:25.416Z,1014.43
2017-07-14T04:09:06.280Z,1014.42
2017-07-14T04:09:47.188Z,1014.39
2017-07-14T04:10:28.086Z,1014.39
2017-07-14T04:11:08.958Z,1014.39
2017-07-14T04:11:49.864Z,1014.4
2017-07-14T04:12:30.780Z,1014.36
2017-07-14T04:13:11.643Z,1014.39
2017-07-14T04:13:52.525Z,1014.36
2017-07-14T04:14:33.413Z,1014.36
2017-07-14T04:15:14.299Z,1014.34
2017-07-14T04:15:55.198Z,1014.38
2017-07-14T04:16:36.101Z,1014.38
2017-07-14T04:17:16.976Z,1014.37
2017-07-14T04:17:57.881Z,1014.34
2017-07-14T04:18:38.778Z,1014.31
2017-07-14T04:19:19.661Z,1014.33
2017-07-14T04:20:00.589Z,1014.31
2017-07-14T04:20:41.474Z,1014.34
2017-07-14T04:21:22.368Z,1014.3
2017-07-14T04:22:03.274Z,1014.28
2017-07-14T04:22:44.154Z,1014.3
2017-07-14T04:23:25.060Z,1014.27
2017-07-14T04:24:05.943Z,1014.23
2017-07-14T04:24:46.834Z,1014.28
2017-07-14T04:25:27.729Z,1014.27
2017-07-14T04:26:08.618Z,1014.26
2017-07-14T04:26:49.512Z,1014.25
2017-07-14T04:27:30.410Z,1014.25
2017-07-14T04:28:11.295Z,1014.19
2017-07-14T04:28:52.198Z,1014.19
2017-07-14T04:29:33.093Z,1014.21
2017-07-14T04:30:13.986Z,1014.21
2017-07-14T04:30:54.849Z,1014.23
2017-07-14T04:31:35.754Z,1014.21
2017-07-14T04:32:16.645Z,1014.21
2017-07-14T04:32:57.534Z,1014.22
2017-07-14T04:33:38.435Z,1014.22
2017-07-14T04:34:19.323Z,1014.18
2017-07-14T04:35:00.217Z,1014.16
2017-07-14T04:35:41.112Z,1014.19
2017-07-14T04:36:22.000Z,1014.18
2017-07-14T04:37:02.891Z,1014.19
2017-07-14T04:37:43.779Z,1014.2
2017-07-14T04:38:24.688Z,1014.18
2017-07-14T04:39:05.546Z,1014.21
2017-07-14T04:39:46.435Z,1014.17
2017-07-14T04:40:27.328Z,1014.15
2017-07-14T04:41:08.223Z,1014.16
2017-07-14T04:41:49.111Z,1014.14
2017-07-14T04:42:30.065Z,1014.16
2017-07-14T04:43:10.942Z,1014.2
2017-07-14T04:43:52.028Z,1014.17
2017-07-14T04:44:32.927Z,1014.16
2017-07-14T04:45:13.903Z,1014.18
2017-07-14T04:46:47.232Z,1014.14
2017-07-14T04:48:56.427Z,1014.14
2017-07-14T04:50:55.342Z,1014.16
2017-07-14T04:51:36.261Z,1014.16
2017-07-14T04:52:17.220Z,1014.15
2017-07-14T04:52:58.224Z,1014.15
2017-07-14T04:53:39.261Z,1014.14
2017-07-14T04:55:38.213Z,1014.11
2017-07-14T04:57:16.606Z,1014.11
2017-07-14T04:57:57.494Z,1014.13
2017-07-14T04:58:38.389Z,1014.11
2017-07-14T04:59:19.275Z,1014.13
2017-07-14T05:00:00.162Z,1014.13
2017-07-14T05:00:41.052Z,1014.11
2017-07-14T05:02:51.080Z,1014.05
2017-07-14T05:03:31.960Z,1014.09
2017-07-14T05:04:12.855Z,1014.09
2017-07-14T05:04:53.729Z,1014.08
2017-07-14T05:05:34.620Z,1014.05
2017-07-14T05:06:15.494Z,1014.07
2017-07-14T05:06:56.375Z,1014.04
2017-07-14T05:07:37.254Z,1014.06
2017-07-14T05:08:18.136Z,1014.05
2017-07-14T05:08:59.033Z,1014.04
2017-07-14T05:09:39.920Z,1014.04
2017-07-14T05:10:20.813Z,1014.04
2017-07-14T05:11:01.705Z,1014.03
2017-07-14T05:11:42.600Z,1014.02
2017-07-14T05:12:23.493Z,1014.03
2017-07-14T05:13:04.411Z,1014.02
2017-07-14T05:13:45.292Z,1013.99
2017-07-14T05:14:26.169Z,1013.99
2017-07-14T05:15:07.040Z,1013.98
2017-07-14T05:15:47.937Z,1013.95
2017-07-14T05:16:28.831Z,1013.96
2017-07-14T05:17:09.717Z,1013.95
2017-07-14T05:17:50.614Z,1013.92
2017-07-14T05:18:31.508Z,1013.89
2017-07-14T05:19:12.456Z,1013.92
2017-07-14T05:19:53.346Z,1013.92
2017-07-14T05:20:34.248Z,1013.88
2017-07-14T05:21:15.137Z,1013.92
2017-07-14T05:21:56.012Z,1013.92
2017-07-14T05:23:55.760Z,1013.95
2017-07-14T05:24:36.646Z,1013.94
2017-07-14T05:26:48.309Z,1013.92
2017-07-14T05:27:29.210Z,1013.95
2017-07-14T05:28:10.118Z,1013.9
2017-07-14T05:28:51.007Z,1013.93
2017-07-14T05:29:31.895Z,1013.92
2017-07-14T05:30:12.803Z,1013.9
2017-07-14T05:32:06.441Z,1013.92
2017-07-14T05:32:47.335Z,1013.93
2017-07-14T05:33:28.218Z,1013.93
2017-07-14T05:34:09.109Z,1013.96
2017-07-14T05:34:49.999Z,1013.94
2017-07-14T05:35:30.886Z,1013.97
2017-07-14T05:36:11.777Z,1013.96
2017-07-14T05:36:52.706Z,1013.93
2017-07-14T05:37:33.579Z,1013.94
2017-07-14T05:38:14.493Z,1013.95
2017-07-14T05:38:55.381Z,1013.91
2017-07-14T05:39:36.259Z,1013.94
2017-07-14T05:40:17.166Z,1013.93
2017-07-14T05:40:58.104Z,1013.88
2017-07-14T05:41:39.005Z,1013.87
2017-07-14T05:42:19.887Z,1013.87
2017-07-14T05:43:00.777Z,1013.87
2017-07-14T05:43:41.681Z,1013.87
2017-07-14T05:44:22.567Z,1013.88
2017-07-14T05:45:03.448Z,1013.86
2017-07-14T05:45:44.356Z,1013.85
2017-07-14T05:46:25.243Z,1013.88
2017-07-14T05:47:06.119Z,1013.89
2017-07-14T05:47:47.012Z,1013.87
2017-07-14T05:48:27.913Z,1013.85
2017-07-14T05:49:08.802Z,1013.89
2017-07-14T05:49:49.687Z,1013.88
2017-07-14T05:50:30.576Z,1013.88
2017-07-14T05:51:11.460Z,1013.87
2017-07-14T05:51:52.356Z,1013.88
2017-07-14T05:52:33.239Z,1013.87
2017-07-14T05:53:14.128Z,1013.85
2017-07-14T05:53:55.013Z,1013.83
2017-07-14T05:54:36.452Z,1013.82
2017-07-14T05:55:17.326Z,1013.81
2017-07-14T05:55:58.610Z,1013.83
2017-07-14T05:56:39.494Z,1013.85
2017-07-14T05:57:20.376Z,1013.87
2017-07-14T05:58:01.262Z,1013.82
2017-07-14T05:58:42.146Z,1013.84
2017-07-14T05:59:23.051Z,1013.84
2017-07-14T06:00:03.946Z,1013.85
2017-07-14T06:00:44.840Z,1013.88
2017-07-14T06:01:25.732Z,1013.86
2017-07-14T06:02:06.620Z,1013.83
2017-07-14T06:02:47.523Z,1013.82
2017-07-14T06:03:28.413Z,1013.82
2017-07-14T06:04:09.303Z,1013.84
2017-07-14T06:04:50.189Z,1013.88
2017-07-14T06:05:31.089Z,1013.85
2017-07-14T06:06:11.969Z,1013.85
2017-07-14T06:06:52.867Z,1013.86
2017-07-14T06:07:33.755Z,1013.89
2017-07-14T06:08:14.725Z,1013.86
2017-07-14T06:08:55.628Z,1013.83
2017-07-14T06:09:36.507Z,1013.84
2017-07-14T06:10:17.418Z,1013.87
2017-07-14T06:10:58.289Z,1013.86
2017-07-14T06:11:39.186Z,1013.84
2017-07-14T06:12:20.073Z,1013.87
2017-07-14T06:13:01.005Z,1013.84
2017-07-14T06:13:41.891Z,1013.85
2017-07-14T06:14:22.786Z,1013.87
2017-07-14T06:15:03.695Z,1013.86
2017-07-14T06:15:44.583Z,1013.88
2017-07-14T06:16:25.471Z,1013.89
2017-07-14T06:17:06.363Z,1013.86
2017-07-14T06:17:47.261Z,1013.88
2017-07-14T06:18:28.143Z,1013.86
2017-07-14T06:19:09.059Z,1013.83
2017-07-14T06:19:49.944Z,1013.86
2017-07-14T06:20:30.931Z,1013.85
2017-07-14T06:21:11.825Z,1013.8
2017-07-14T06:21:52.721Z,1013.85
2017-07-14T06:22:33.617Z,1013.87
2017-07-14T06:23:14.508Z,1013.85
2017-07-14T06:23:55.446Z,1013.81
2017-07-14T06:24:36.338Z,1013.79
2017-07-14T06:25:17.220Z,1013.82
2017-07-14T06:25:58.155Z,1013.8
2017-07-14T06:26:39.035Z,1013.77
2017-07-14T06:27:19.933Z,1013.77
2017-07-14T06:28:00.826Z,1013.82
2017-07-14T06:28:41.717Z,1013.83
2017-07-14T06:29:22.602Z,1013.81
2017-07-14T06:30:03.520Z,1013.82
2017-07-14T06:30:44.376Z,1013.82
2017-07-14T06:31:25.261Z,1013.81
2017-07-14T06:32:06.161Z,1013.84
2017-07-14T06:32:47.036Z,1013.86
2017-07-14T06:33:27.933Z,1013.82
2017-07-14T06:34:08.814Z,1013.85
2017-07-14T06:34:49.709Z,1013.84
2017-07-14T06:35:30.600Z,1013.84
2017-07-14T06:36:11.499Z,1013.87
2017-07-14T06:36:52.386Z,1013.86
2017-07-14T06:37:33.289Z,1013.81
2017-07-14T06:38:14.226Z,1013.82
2017-07-14T06:38:55.119Z,1013.84
2017-07-14T06:39:36.016Z,1013.83
2017-07-14T06:40:16.909Z,1013.79
2017-07-14T06:40:57.794Z,1013.82
2017-07-14T06:41:38.700Z,1013.83
2017-07-14T06:42:19.583Z,1013.82
2017-07-14T06:43:00.477Z,1013.79
2017-07-14T06:43:41.373Z,1013.77
2017-07-14T06:44:22.264Z,1013.76
2017-07-14T06:46:15.948Z,1013.78
2017-07-14T06:46:56.825Z,1013.76
2017-07-14T06:47:37.718Z,1013.78
2017-07-14T06:48:18.684Z,1013.74
2017-07-14T06:48:59.573Z,1013.77
2017-07-14T06:49:40.460Z,1013.75
2017-07-14T06:50:21.363Z,1013.74
2017-07-14T06:51:02.279Z,1013.76
2017-07-14T06:51:43.172Z,1013.72
2017-07-14T06:52:24.052Z,1013.73
2017-07-14T06:53:04.950Z,1013.73
2017-07-14T06:53:45.858Z,1013.7
2017-07-14T06:54:26.792Z,1013.72
2017-07-14T06:55:07.685Z,1013.69
2017-07-14T06:55:48.572Z,1013.69
2017-07-14T06:56:29.478Z,1013.72
2017-07-14T06:57:10.379Z,1013.68
2017-07-14T06:57:51.275Z,1013.73
2017-07-14T06:58:32.157Z,1013.7
2017-07-14T06:59:13.060Z,1013.74
2017-07-14T06:59:53.943Z,1013.72
2017-07-14T07:00:34.859Z,1013.74
2017-07-14T07:01:15.755Z,1013.73
2017-07-14T07:01:56.653Z,1013.72
2017-07-14T07:02:37.539Z,1013.71
2017-07-14T07:03:18.478Z,1013.72
2017-07-14T07:03:59.316Z,1013.72
2017-07-14T07:04:40.210Z,1013.69
2017-07-14T07:05:21.115Z,1013.69
2017-07-14T07:06:02.005Z,1013.68
2017-07-14T07:06:42.908Z,1013.72
2017-07-14T07:07:23.804Z,1013.64
2017-07-14T07:08:04.701Z,1013.63
2017-07-14T07:08:45.590Z,1013.68
2017-07-14T07:09:26.496Z,1013.68
2017-07-14T07:10:07.391Z,1013.64
2017-07-14T07:10:48.285Z,1013.64
2017-07-14T07:11:29.176Z,1013.65
2017-07-14T07:12:10.069Z,1013.65
2017-07-14T07:12:50.963Z,1013.67
2017-07-14T07:13:31.855Z,1013.66
2017-07-14T07:14:12.756Z,1013.66
2017-07-14T07:14:53.655Z,1013.68
2017-07-14T07:15:34.545Z,1013.66
2017-07-14T07:16:15.439Z,1013.65
2017-07-14T07:16:56.349Z,1013.67
2017-07-14T07:17:37.248Z,1013.7
2017-07-14T07:18:18.147Z,1013.67
2017-07-14T07:18:59.048Z,1013.66
2017-07-14T07:19:39.949Z,1013.62
2017-07-14T07:20:20.847Z,1013.61
2017-07-14T07:21:01.758Z,1013.63
2017-07-14T07:21:42.678Z,1013.63
2017-07-14T07:22:23.602Z,1013.63
2017-07-14T07:23:04.538Z,1013.58
2017-07-14T07:23:45.443Z,1013.66
2017-07-14T07:24:26.337Z,1013.6
2017-07-14T07:25:07.244Z,1013.63
2017-07-14T07:25:48.143Z,1013.66
2017-07-14T07:26:29.051Z,1013.59
2017-07-14T07:27:09.953Z,1013.56
2017-07-14T07:27:50.854Z,1013.58
2017-07-14T07:28:31.774Z,1013.59
2017-07-14T07:29:12.631Z,1013.56
2017-07-14T07:29:53.545Z,1013.57
2017-07-14T07:31:32.304Z,1013.58
2017-07-14T07:32:13.223Z,1013.61
2017-07-14T07:32:54.130Z,1013.57
2017-07-14T07:33:35.032Z,1013.58
2017-07-14T07:34:15.949Z,1013.55
2017-07-14T07:34:56.857Z,1013.56
2017-07-14T07:35:37.765Z,1013.58
2017-07-14T07:36:18.667Z,1013.56
2017-07-14T07:36:59.558Z,1013.55
2017-07-14T07:37:40.420Z,1013.56
2017-07-14T07:38:21.328Z,1013.54
2017-07-14T07:39:02.231Z,1013.56
2017-07-14T07:39:43.139Z,1013.56
2017-07-14T07:40:24.038Z,1013.5
2017-07-14T07:41:04.939Z,1013.49
2017-07-14T07:41:45.865Z,1013.51
2017-07-14T07:42:26.788Z,1013.47
2017-07-14T07:43:07.688Z,1013.48
2017-07-14T07:43:48.591Z,1013.47
2017-07-14T07:44:29.509Z,1013.51
2017-07-14T07:45:10.417Z,1013.54
2017-07-14T07:45:51.321Z,1013.49
2017-07-14T07:46:32.208Z,1013.52
2017-07-14T07:47:13.117Z,1013.52
2017-07-14T07:47:54.026Z,1013.48
2017-07-14T07:48:34.930Z,1013.47
2017-07-14T07:49:15.806Z,1013.48
2017-07-14T07:49:56.707Z,1013.48
2017-07-14T07:51:55.697Z,1013.44
2017-07-14T07:52:36.595Z,1013.44
2017-07-14T07:53:17.512Z,1013.44
2017-07-14T07:53:58.414Z,1013.43
2017-07-14T07:54:39.308Z,1013.43
2017-07-14T07:55:20.209Z,1013.43
2017-07-14T07:56:01.115Z,1013.45
2017-07-14T07:56:42.028Z,1013.43
2017-07-14T07:57:22.925Z,1013.43
2017-07-14T07:58:03.823Z,1013.39
2017-07-14T07:58:44.727Z,1013.43
2017-07-14T07:59:25.639Z,1013.4
2017-07-14T08:00:06.538Z,1013.34
2017-07-14T08:00:47.430Z,1013.37
2017-07-14T08:01:28.340Z,1013.39
2017-07-14T08:02:09.249Z,1013.33
2017-07-14T08:02:50.154Z,1013.33
2017-07-14T08:03:31.058Z,1013.36
2017-07-14T08:04:11.972Z,1013.37
2017-07-14T08:04:52.880Z,1013.3
2017-07-14T08:05:33.775Z,1013.32
2017-07-14T08:06:14.679Z,1013.33
2017-07-14T08:06:55.579Z,1013.31
2017-07-14T08:07:36.463Z,1013.36
2017-07-14T08:08:17.382Z,1013.34
2017-07-14T08:08:58.319Z,1013.36
2017-07-14T08:09:39.216Z,1013.32
2017-07-14T08:10:20.113Z,1013.35
2017-07-14T08:11:01.018Z,1013.35
2017-07-14T08:11:41.935Z,1013.34
2017-07-14T08:12:22.836Z,1013.36
2017-07-14T08:13:03.751Z,1013.33
2017-07-14T08:13:44.688Z,1013.33
2017-07-14T08:14:25.601Z,1013.31
2017-07-14T08:15:06.498Z,1013.31
2017-07-14T08:15:47.401Z,1013.31
2017-07-14T08:16:28.292Z,1013.31
2017-07-14T08:17:09.222Z,1013.32
2017-07-14T08:17:50.110Z,1013.3
2017-07-14T08:18:31.005Z,1013.28
2017-07-14T08:19:11.897Z,1013.28
2017-07-14T08:19:52.804Z,1013.26
2017-07-14T08:20:33.713Z,1013.29
2017-07-14T08:21:14.607Z,1013.29
2017-07-14T08:21:55.498Z,1013.24
2017-07-14T08:22:36.410Z,1013.28
2017-07-14T08:23:17.310Z,1013.27
2017-07-14T08:23:58.213Z,1013.27
2017-07-14T08:24:39.129Z,1013.27
2017-07-14T08:25:20.029Z,1013.26
2017-07-14T08:26:00.942Z,1013.26
2017-07-14T08:26:41.847Z,1013.27
2017-07-14T08:27:22.745Z,1013.25
2017-07-14T08:28:03.662Z,1013.24
2017-07-14T08:28:44.562Z,1013.26
2017-07-14T08:29:25.461Z,1013.21
2017-07-14T08:30:06.392Z,1013.23
2017-07-14T08:30:47.293Z,1013.2
2017-07-14T08:31:28.197Z,1013.21